sensor_id;sensor_type;location;lat;lon;timestamp;pressure;altitude;pressure_sealevel;temperature;humidity
7480;BME280;3781;42.272;22.658;2022-08-07T00:01:35;94348.38;;;21.85;62.26
7480;BME280;3781;42.272;22.658;2022-08-07T00:04:02;94332.91;;;21.88;62.26
7480;BME280;3781;42.272;22.658;2022-08-07T00:06:29;94324.81;;;21.70;62.26
7480;BME280;3781;42.272;22.658;2022-08-07T00:08:56;94338.19;;;21.75;62.85
7480;BME280;3781;42.272;22.658;2022-08-07T00:11:22;94346.38;;;21.67;62.98
7480;BME280;3781;42.272;22.658;2022-08-07T00:13:51;94331.81;;;21.32;64.88
7480;BME280;3781;42.272;22.658;2022-08-07T00:16:17;94340.56;;;21.26;64.75
7480;BME280;3781;42.272;22.658;2022-08-07T00:18:44;94335.88;;;21.28;65.07
7480;BME280;3781;42.272;22.658;2022-08-07T00:21:11;94343.56;;;21.36;64.39
7480;BME280;3781;42.272;22.658;2022-08-07T00:23:39;94337.28;;;21.37;64.12
7480;BME280;3781;42.272;22.658;2022-08-07T00:26:07;94332.97;;;21.55;63.41
7480;BME280;3781;42.272;22.658;2022-08-07T00:28:35;94337.88;;;21.45;63.81
7480;BME280;3781;42.272;22.658;2022-08-07T00:31:07;94340.34;;;21.27;64.72
7480;BME280;3781;42.272;22.658;2022-08-07T00:33:35;94329.38;;;21.24;64.57
7480;BME280;3781;42.272;22.658;2022-08-07T00:36:03;94327.31;;;21.39;64.65
7480;BME280;3781;42.272;22.658;2022-08-07T00:38:30;94345.59;;;21.47;63.87
7480;BME280;3781;42.272;22.658;2022-08-07T00:40:58;94343.38;;;21.50;63.56
7480;BME280;3781;42.272;22.658;2022-08-07T00:43:25;94349.28;;;21.46;64.04
7480;BME280;3781;42.272;22.658;2022-08-07T00:45:52;94347.47;;;21.27;66.55
7480;BME280;3781;42.272;22.658;2022-08-07T00:48:20;94355.56;;;20.92;68.87
7480;BME280;3781;42.272;22.658;2022-08-07T00:50:47;94326.94;;;20.63;70.96
7480;BME280;3781;42.272;22.658;2022-08-07T00:53:14;94338.72;;;20.61;72.12
7480;BME280;3781;42.272;22.658;2022-08-07T00:55:41;94334.63;;;20.45;73.16
7480;BME280;3781;42.272;22.658;2022-08-07T00:58:08;94341.94;;;20.56;72.64
7480;BME280;3781;42.272;22.658;2022-08-07T01:00:35;94341.94;;;20.56;71.94
7480;BME280;3781;42.272;22.658;2022-08-07T01:03:02;94337.06;;;20.53;72.22
7480;BME280;3781;42.272;22.658;2022-08-07T01:05:31;94343.56;;;20.44;71.92
7480;BME280;3781;42.272;22.658;2022-08-07T01:07:58;94342.84;;;20.16;77.05
7480;BME280;3781;42.272;22.658;2022-08-07T01:10:25;94338.66;;;20.28;76.85
7480;BME280;3781;42.272;22.658;2022-08-07T01:12:51;94327.22;;;20.14;76.78
7480;BME280;3781;42.272;22.658;2022-08-07T01:15:19;94344.31;;;20.25;75.70
7480;BME280;3781;42.272;22.658;2022-08-07T01:17:46;94346.25;;;20.10;77.61
7480;BME280;3781;42.272;22.658;2022-08-07T01:20:13;94337.53;;;19.96;77.09
7480;BME280;3781;42.272;22.658;2022-08-07T01:22:42;94346.63;;;19.94;79.40
7480;BME280;3781;42.272;22.658;2022-08-07T01:25:10;94357.19;;;19.94;82.25
7480;BME280;3781;42.272;22.658;2022-08-07T01:27:37;94363.19;;;19.75;81.88
7480;BME280;3781;42.272;22.658;2022-08-07T01:30:06;94357.06;;;19.68;82.63
7480;BME280;3781;42.272;22.658;2022-08-07T01:32:34;94360.69;;;19.67;83.22
7480;BME280;3781;42.272;22.658;2022-08-07T01:35:01;94361.88;;;19.64;83.41
7480;BME280;3781;42.272;22.658;2022-08-07T01:37:28;94359.72;;;19.74;82.34
7480;BME280;3781;42.272;22.658;2022-08-07T01:39:57;94362.38;;;19.81;81.96
7480;BME280;3781;42.272;22.658;2022-08-07T01:42:26;94353.03;;;19.78;81.36
7480;BME280;3781;42.272;22.658;2022-08-07T01:44:53;94359.56;;;19.89;80.84
7480;BME280;3781;42.272;22.658;2022-08-07T01:47:20;94361.91;;;19.71;83.88
7480;BME280;3781;42.272;22.658;2022-08-07T01:49:48;94356.13;;;19.47;88.78
7480;BME280;3781;42.272;22.658;2022-08-07T01:52:15;94361.63;;;19.52;86.84
7480;BME280;3781;42.272;22.658;2022-08-07T01:54:44;94356.91;;;19.41;90.49
7480;BME280;3781;42.272;22.658;2022-08-07T01:57:18;94358.53;;;19.42;90.46
7480;BME280;3781;42.272;22.658;2022-08-07T01:59:52;94355.31;;;19.47;89.41
7480;BME280;3781;42.272;22.658;2022-08-07T02:02:21;94348.72;;;19.64;87.23
7480;BME280;3781;42.272;22.658;2022-08-07T02:04:55;94356.28;;;19.74;85.61
7480;BME280;3781;42.272;22.658;2022-08-07T02:07:28;94344.28;;;19.71;86.28
7480;BME280;3781;42.272;22.658;2022-08-07T02:09:56;94343.41;;;19.58;86.52
7480;BME280;3781;42.272;22.658;2022-08-07T02:12:27;94351.38;;;19.71;85.34
7480;BME280;3781;42.272;22.658;2022-08-07T02:14:58;94346.97;;;19.78;84.72
7480;BME280;3781;42.272;22.658;2022-08-07T02:17:26;94348.59;;;19.79;85.13
7480;BME280;3781;42.272;22.658;2022-08-07T02:19:54;94337.66;;;19.82;84.34
7480;BME280;3781;42.272;22.658;2022-08-07T02:22:23;94341.69;;;19.78;85.26
7480;BME280;3781;42.272;22.658;2022-08-07T02:24:52;94345.38;;;19.83;84.98
7480;BME280;3781;42.272;22.658;2022-08-07T02:27:21;94345.44;;;20.03;82.91
7480;BME280;3781;42.272;22.658;2022-08-07T02:29:51;94347.09;;;20.17;81.10
7480;BME280;3781;42.272;22.658;2022-08-07T02:32:18;94345.94;;;20.26;81.26
7480;BME280;3781;42.272;22.658;2022-08-07T02:34:47;94352.66;;;20.35;79.87
7480;BME280;3781;42.272;22.658;2022-08-07T02:37:15;94332.16;;;20.31;79.29
7480;BME280;3781;42.272;22.658;2022-08-07T02:39:45;94344.75;;;20.35;82.51
7480;BME280;3781;42.272;22.658;2022-08-07T02:42:14;94352.66;;;20.35;84.86
7480;BME280;3781;42.272;22.658;2022-08-07T02:44:44;94329.19;;;19.93;83.89
7480;BME280;3781;42.272;22.658;2022-08-07T02:47:13;94350.09;;;19.94;84.22
7480;BME280;3781;42.272;22.658;2022-08-07T02:49:41;94353.97;;;20.05;87.98
7480;BME280;3781;42.272;22.658;2022-08-07T02:52:10;94350.31;;;20.06;88.77
7480;BME280;3781;42.272;22.658;2022-08-07T02:54:40;94357.84;;;20.09;88.50
7480;BME280;3781;42.272;22.658;2022-08-07T02:57:11;94335.28;;;19.93;89.56
7480;BME280;3781;42.272;22.658;2022-08-07T02:59:40;94337.31;;;19.98;87.19
7480;BME280;3781;42.272;22.658;2022-08-07T03:02:10;94355.22;;;20.15;84.60
7480;BME280;3781;42.272;22.658;2022-08-07T03:04:40;94347.09;;;20.17;82.82
7480;BME280;3781;42.272;22.658;2022-08-07T03:07:08;94362.19;;;20.29;82.11
7480;BME280;3781;42.272;22.658;2022-08-07T03:09:36;94356.88;;;20.23;83.98
7480;BME280;3781;42.272;22.658;2022-08-07T03:12:03;94366.63;;;20.22;81.82
7480;BME280;3781;42.272;22.658;2022-08-07T03:14:31;94382.66;;;20.27;83.00
7480;BME280;3781;42.272;22.658;2022-08-07T03:17:00;94391.38;;;20.21;84.54
7480;BME280;3781;42.272;22.658;2022-08-07T03:19:28;94394.94;;;20.14;86.52
7480;BME280;3781;42.272;22.658;2022-08-07T03:21:57;94392.53;;;20.12;89.08
7480;BME280;3781;42.272;22.658;2022-08-07T03:24:25;94396.59;;;20.15;88.35
7480;BME280;3781;42.272;22.658;2022-08-07T03:26:53;94409.56;;;20.16;86.03
7480;BME280;3781;42.272;22.658;2022-08-07T03:29:21;94402.69;;;20.15;85.28
7480;BME280;3781;42.272;22.658;2022-08-07T03:31:50;94395.38;;;20.11;86.75
7480;BME280;3781;42.272;22.658;2022-08-07T03:34:18;94403.28;;;20.11;87.87
7480;BME280;3781;42.272;22.658;2022-08-07T03:36:47;94409.03;;;19.87;90.59
7480;BME280;3781;42.272;22.658;2022-08-07T03:39:16;94385.34;;;19.52;92.36
7480;BME280;3781;42.272;22.658;2022-08-07T03:41:44;94397.56;;;19.67;93.53
7480;BME280;3781;42.272;22.658;2022-08-07T03:44:11;94397.34;;;19.96;89.75
7480;BME280;3781;42.272;22.658;2022-08-07T03:46:38;94374.66;;;20.08;87.19
7480;BME280;3781;42.272;22.658;2022-08-07T03:49:07;94398.50;;;20.34;86.37
7480;BME280;3781;42.272;22.658;2022-08-07T03:51:35;94393.06;;;20.36;86.37
7480;BME280;3781;42.272;22.658;2022-08-07T03:54:02;94397.19;;;20.77;81.11
7480;BME280;3781;42.272;22.658;2022-08-07T03:56:32;94368.78;;;20.99;74.77
7480;BME280;3781;42.272;22.658;2022-08-07T03:59:01;94391.13;;;21.36;74.24
7480;BME280;3781;42.272;22.658;2022-08-07T04:01:30;94381.00;;;21.33;74.92
7480;BME280;3781;42.272;22.658;2022-08-07T04:03:58;94404.53;;;21.54;73.50
7480;BME280;3781;42.272;22.658;2022-08-07T04:06:25;94391.13;;;21.49;74.89
7480;BME280;3781;42.272;22.658;2022-08-07T04:08:52;94399.06;;;21.42;78.63
7480;BME280;3781;42.272;22.658;2022-08-07T04:11:19;94398.88;;;21.18;83.86
7480;BME280;3781;42.272;22.658;2022-08-07T04:13:48;94388.69;;;21.01;86.78
7480;BME280;3781;42.272;22.658;2022-08-07T04:16:16;94393.94;;;20.88;90.78
7480;BME280;3781;42.272;22.658;2022-08-07T04:18:43;94378.31;;;20.67;90.94
7480;BME280;3781;42.272;22.658;2022-08-07T04:21:10;94397.19;;;20.84;89.44
7480;BME280;3781;42.272;22.658;2022-08-07T04:23:37;94380.16;;;20.86;87.77
7480;BME280;3781;42.272;22.658;2022-08-07T04:26:05;94399.69;;;21.12;86.53
7480;BME280;3781;42.272;22.658;2022-08-07T04:28:33;94404.56;;;21.28;84.71
7480;BME280;3781;42.272;22.658;2022-08-07T04:31:01;94413.50;;;21.53;80.31
7480;BME280;3781;42.272;22.658;2022-08-07T04:33:28;94410.22;;;21.70;79.90
7480;BME280;3781;42.272;22.658;2022-08-07T04:35:56;94414.88;;;21.62;82.05
7480;BME280;3781;42.272;22.658;2022-08-07T04:38:24;94411.03;;;21.45;86.68
7480;BME280;3781;42.272;22.658;2022-08-07T04:40:51;94408.81;;;21.55;87.61
7480;BME280;3781;42.272;22.658;2022-08-07T04:43:26;94396.38;;;21.62;81.26
7480;BME280;3781;42.272;22.658;2022-08-07T04:45:59;94409.81;;;21.67;89.14
7480;BME280;3781;42.272;22.658;2022-08-07T04:48:36;94415.06;;;21.80;89.41
7480;BME280;3781;42.272;22.658;2022-08-07T04:51:08;94411.44;;;21.68;93.99
7480;BME280;3781;42.272;22.658;2022-08-07T04:53:41;94396.84;;;21.26;100.00
7480;BME280;3781;42.272;22.658;2022-08-07T04:56:15;94419.59;;;21.27;99.48
7480;BME280;3781;42.272;22.658;2022-08-07T04:58:48;94418.19;;;21.38;96.33
7480;BME280;3781;42.272;22.658;2022-08-07T05:01:30;94404.50;;;21.67;91.67
7480;BME280;3781;42.272;22.658;2022-08-07T05:04:06;94420.34;;;22.00;82.39
7480;BME280;3781;42.272;22.658;2022-08-07T05:06:40;94421.00;;;22.39;77.98
7480;BME280;3781;42.272;22.658;2022-08-07T05:09:11;94429.00;;;22.71;70.75
7480;BME280;3781;42.272;22.658;2022-08-07T05:11:43;94435.53;;;23.06;68.24
7480;BME280;3781;42.272;22.658;2022-08-07T05:14:15;94427.34;;;23.39;63.09
7480;BME280;3781;42.272;22.658;2022-08-07T05:16:45;94422.63;;;23.65;62.86
7480;BME280;3781;42.272;22.658;2022-08-07T05:19:17;94419.16;;;23.89;60.08
7480;BME280;3781;42.272;22.658;2022-08-07T05:21:48;94422.75;;;23.95;60.59
7480;BME280;3781;42.272;22.658;2022-08-07T05:24:18;94423.72;;;24.01;59.33
7480;BME280;3781;42.272;22.658;2022-08-07T05:26:48;94426.38;;;24.37;56.94
7480;BME280;3781;42.272;22.658;2022-08-07T05:29:18;94426.97;;;24.21;61.01
7480;BME280;3781;42.272;22.658;2022-08-07T05:31:47;94414.50;;;24.03;63.04
7480;BME280;3781;42.272;22.658;2022-08-07T05:34:16;94426.53;;;24.24;59.53
7480;BME280;3781;42.272;22.658;2022-08-07T05:36:46;94416.00;;;24.17;63.34
7480;BME280;3781;42.272;22.658;2022-08-07T05:39:14;94425.28;;;24.08;66.11
7480;BME280;3781;42.272;22.658;2022-08-07T05:41:42;94428.41;;;24.05;64.02
7480;BME280;3781;42.272;22.658;2022-08-07T05:44:12;94446.09;;;23.86;65.01
7480;BME280;3781;42.272;22.658;2022-08-07T05:46:39;94445.31;;;24.04;62.87
7480;BME280;3781;42.272;22.658;2022-08-07T05:49:08;94451.16;;;24.13;62.73
7480;BME280;3781;42.272;22.658;2022-08-07T05:51:37;94462.16;;;24.16;59.26
7480;BME280;3781;42.272;22.658;2022-08-07T05:54:04;94459.28;;;24.18;60.81
7480;BME280;3781;42.272;22.658;2022-08-07T05:56:33;94463.56;;;24.37;59.12
7480;BME280;3781;42.272;22.658;2022-08-07T05:59:01;94451.75;;;24.33;56.49
7480;BME280;3781;42.272;22.658;2022-08-07T06:01:29;94480.97;;;24.51;56.86
7480;BME280;3781;42.272;22.658;2022-08-07T06:03:56;94482.72;;;24.75;56.24
7480;BME280;3781;42.272;22.658;2022-08-07T06:06:24;94472.97;;;24.87;56.50
7480;BME280;3781;42.272;22.658;2022-08-07T06:08:53;94486.91;;;25.01;56.86
7480;BME280;3781;42.272;22.658;2022-08-07T06:11:21;94399.84;;;24.37;56.10
7480;BME280;3781;42.272;22.658;2022-08-07T06:13:48;94492.41;;;24.88;57.59
7480;BME280;3781;42.272;22.658;2022-08-07T06:16:15;94491.59;;;24.51;59.76
7480;BME280;3781;42.272;22.658;2022-08-07T06:18:43;94502.06;;;24.46;60.83
7480;BME280;3781;42.272;22.658;2022-08-07T06:21:11;94502.38;;;24.38;59.13
7480;BME280;3781;42.272;22.658;2022-08-07T06:23:39;94506.31;;;24.47;57.06
7480;BME280;3781;42.272;22.658;2022-08-07T06:26:10;94488.63;;;24.41;61.12
7480;BME280;3781;42.272;22.658;2022-08-07T06:28:47;94503.34;;;24.19;64.93
7480;BME280;3781;42.272;22.658;2022-08-07T06:31:14;94489.59;;;23.85;66.36
7480;BME280;3781;42.272;22.658;2022-08-07T06:33:41;94492.88;;;24.06;64.78
7480;BME280;3781;42.272;22.658;2022-08-07T06:36:09;94500.63;;;24.07;67.34
7480;BME280;3781;42.272;22.658;2022-08-07T06:38:36;94499.25;;;24.23;66.26
7480;BME280;3781;42.272;22.658;2022-08-07T06:41:07;94494.66;;;24.30;66.10
7480;BME280;3781;42.272;22.658;2022-08-07T06:43:36;94484.25;;;24.10;66.87
7480;BME280;3781;42.272;22.658;2022-08-07T06:46:04;94497.75;;;24.09;69.69
7480;BME280;3781;42.272;22.658;2022-08-07T06:48:31;94512.72;;;24.21;67.08
7480;BME280;3781;42.272;22.658;2022-08-07T06:50:59;94502.94;;;24.22;66.69
7480;BME280;3781;42.272;22.658;2022-08-07T06:53:28;94515.34;;;24.46;65.44
7480;BME280;3781;42.272;22.658;2022-08-07T06:55:56;94508.47;;;24.56;64.45
7480;BME280;3781;42.272;22.658;2022-08-07T06:58:25;94520.88;;;24.99;61.84
7480;BME280;3781;42.272;22.658;2022-08-07T07:00:53;94526.50;;;25.20;63.29
7480;BME280;3781;42.272;22.658;2022-08-07T07:03:20;94522.94;;;25.26;60.83
7480;BME280;3781;42.272;22.658;2022-08-07T07:05:47;94526.56;;;25.62;61.72
7480;BME280;3781;42.272;22.658;2022-08-07T07:08:14;94515.00;;;25.91;59.44
7480;BME280;3781;42.272;22.658;2022-08-07T07:10:41;94527.31;;;26.15;57.27
7480;BME280;3781;42.272;22.658;2022-08-07T07:13:15;94522.19;;;26.02;59.40
7480;BME280;3781;42.272;22.658;2022-08-07T07:15:47;94503.94;;;26.05;59.62
7480;BME280;3781;42.272;22.658;2022-08-07T07:18:28;94518.38;;;25.98;58.58
7480;BME280;3781;42.272;22.658;2022-08-07T07:20:58;94518.38;;;25.98;56.81
7480;BME280;3781;42.272;22.658;2022-08-07T07:23:27;94525.09;;;26.00;58.35
7480;BME280;3781;42.272;22.658;2022-08-07T07:25:58;94519.31;;;25.92;57.94
7480;BME280;3781;42.272;22.658;2022-08-07T07:28:30;94525.44;;;25.81;56.33
7480;BME280;3781;42.272;22.658;2022-08-07T07:31:02;94523.97;;;26.20;57.34
7480;BME280;3781;42.272;22.658;2022-08-07T07:33:31;94529.53;;;26.53;56.03
7480;BME280;3781;42.272;22.658;2022-08-07T07:35:59;94501.25;;;26.75;55.53
7480;BME280;3781;42.272;22.658;2022-08-07T07:38:27;94528.97;;;27.42;52.81
7480;BME280;3781;42.272;22.658;2022-08-07T07:40:57;94527.41;;;26.89;52.45
7480;BME280;3781;42.272;22.658;2022-08-07T07:43:26;94517.53;;;26.90;54.37
7480;BME280;3781;42.272;22.658;2022-08-07T07:45:54;94513.28;;;26.66;54.19
7480;BME280;3781;42.272;22.658;2022-08-07T07:48:25;94518.94;;;26.69;52.71
7480;BME280;3781;42.272;22.658;2022-08-07T07:50:53;94523.72;;;26.79;53.16
7480;BME280;3781;42.272;22.658;2022-08-07T07:53:22;94529.38;;;26.82;52.72
7480;BME280;3781;42.272;22.658;2022-08-07T07:55:51;94521.25;;;26.77;52.61
7480;BME280;3781;42.272;22.658;2022-08-07T07:58:18;94518.41;;;27.07;55.11
7480;BME280;3781;42.272;22.658;2022-08-07T08:00:48;94520.50;;;27.33;50.76
7480;BME280;3781;42.272;22.658;2022-08-07T08:03:15;94502.72;;;27.67;54.41
7480;BME280;3781;42.272;22.658;2022-08-07T08:05:46;94516.09;;;28.17;49.21
7480;BME280;3781;42.272;22.658;2022-08-07T08:08:14;94520.03;;;28.86;52.01
7480;BME280;3781;42.272;22.658;2022-08-07T08:10:41;94527.44;;;29.22;47.29
7480;BME280;3781;42.272;22.658;2022-08-07T08:13:09;94520.44;;;29.69;47.88
7480;BME280;3781;42.272;22.658;2022-08-07T08:15:38;94504.31;;;30.23;50.27
7480;BME280;3781;42.272;22.658;2022-08-07T08:18:08;94527.88;;;30.58;48.49
7480;BME280;3781;42.272;22.658;2022-08-07T08:20:36;94520.78;;;30.83;45.17
7480;BME280;3781;42.272;22.658;2022-08-07T08:23:06;94516.06;;;31.00;46.33
7480;BME280;3781;42.272;22.658;2022-08-07T08:25:52;94526.34;;;31.28;44.50
7480;BME280;3781;42.272;22.658;2022-08-07T08:28:50;94539.78;;;31.39;43.14
7480;BME280;3781;42.272;22.658;2022-08-07T08:31:21;94512.09;;;31.18;45.35
7480;BME280;3781;42.272;22.658;2022-08-07T08:33:50;94530.41;;;31.36;44.22
7480;BME280;3781;42.272;22.658;2022-08-07T08:36:19;94522.25;;;32.18;43.99
7480;BME280;3781;42.272;22.658;2022-08-07T08:38:50;94529.28;;;33.82;41.22
7480;BME280;3781;42.272;22.658;2022-08-07T08:41:23;94538.06;;;35.18;36.97
7480;BME280;3781;42.272;22.658;2022-08-07T08:44:00;94536.78;;;35.57;33.97
7480;BME280;3781;42.272;22.658;2022-08-07T08:46:37;94536.56;;;36.28;36.62
7480;BME280;3781;42.272;22.658;2022-08-07T08:49:22;94533.75;;;37.12;33.07
7480;BME280;3781;42.272;22.658;2022-08-07T08:51:55;94520.00;;;38.34;29.37
7480;BME280;3781;42.272;22.658;2022-08-07T08:54:28;94526.56;;;35.92;33.46
7480;BME280;3781;42.272;22.658;2022-08-07T08:56:57;94519.22;;;35.36;33.80
7480;BME280;3781;42.272;22.658;2022-08-07T08:59:29;94525.41;;;35.98;35.60
7480;BME280;3781;42.272;22.658;2022-08-07T09:02:07;94520.72;;;37.00;32.44
7480;BME280;3781;42.272;22.658;2022-08-07T09:04:43;94515.50;;;36.44;33.10
7480;BME280;3781;42.272;22.658;2022-08-07T09:07:15;94520.13;;;36.25;35.24
7480;BME280;3781;42.272;22.658;2022-08-07T09:09:54;94512.06;;;36.84;32.53
7480;BME280;3781;42.272;22.658;2022-08-07T09:12:45;94527.31;;;36.48;33.92
7480;BME280;3781;42.272;22.658;2022-08-07T09:15:29;94523.34;;;35.52;35.01
7480;BME280;3781;42.272;22.658;2022-08-07T09:18:22;94521.78;;;34.47;36.80
7480;BME280;3781;42.272;22.658;2022-08-07T09:20:58;94515.38;;;34.38;40.23
7480;BME280;3781;42.272;22.658;2022-08-07T09:23:35;94517.16;;;35.28;36.81
7480;BME280;3781;42.272;22.658;2022-08-07T09:26:15;94511.06;;;34.70;38.25
7480;BME280;3781;42.272;22.658;2022-08-07T09:28:46;94505.66;;;34.94;38.29
7480;BME280;3781;42.272;22.658;2022-08-07T09:31:26;94486.69;;;36.67;37.01
7480;BME280;3781;42.272;22.658;2022-08-07T09:34:07;94489.78;;;37.55;32.56
7480;BME280;3781;42.272;22.658;2022-08-07T09:36:40;94506.22;;;37.59;31.44
7480;BME280;3781;42.272;22.658;2022-08-07T09:39:21;94513.56;;;35.56;35.11
7480;BME280;3781;42.272;22.658;2022-08-07T09:42:00;94497.72;;;35.26;35.33
7480;BME280;3781;42.272;22.658;2022-08-07T09:44:51;94503.13;;;34.55;37.80
7480;BME280;3781;42.272;22.658;2022-08-07T09:47:32;94498.69;;;34.02;40.02
7480;BME280;3781;42.272;22.658;2022-08-07T09:50:09;94494.31;;;33.72;39.00
7480;BME280;3781;42.272;22.658;2022-08-07T09:52:41;94489.97;;;34.96;38.37
7480;BME280;3781;42.272;22.658;2022-08-07T09:55:16;94493.63;;;34.86;36.66
7480;BME280;3781;42.272;22.658;2022-08-07T09:58:12;94493.19;;;34.98;37.38
7480;BME280;3781;42.272;22.658;2022-08-07T10:00:52;94499.84;;;34.30;36.59
7480;BME280;3781;42.272;22.658;2022-08-07T10:03:43;94493.06;;;35.55;37.61
7480;BME280;3781;42.272;22.658;2022-08-07T10:06:30;94488.91;;;35.39;38.34
7480;BME280;3781;42.272;22.658;2022-08-07T10:09:28;94492.47;;;36.28;36.57
7480;BME280;3781;42.272;22.658;2022-08-07T10:12:13;94491.81;;;36.36;34.96
7480;BME280;3781;42.272;22.658;2022-08-07T10:15:03;94477.97;;;37.51;33.66
7480;BME280;3781;42.272;22.658;2022-08-07T10:18:03;94484.22;;;38.10;32.92
7480;BME280;3781;42.272;22.658;2022-08-07T10:20:40;94480.69;;;37.87;32.84
7480;BME280;3781;42.272;22.658;2022-08-07T10:23:44;94470.94;;;38.53;31.83
7480;BME280;3781;42.272;22.658;2022-08-07T10:26:25;94488.81;;;38.54;29.74
7480;BME280;3781;42.272;22.658;2022-08-07T10:29:02;94486.31;;;39.27;28.51
7480;BME280;3781;42.272;22.658;2022-08-07T10:31:55;94458.91;;;39.63;28.72
7480;BME280;3781;42.272;22.658;2022-08-07T10:34:44;94488.00;;;40.31;27.51
7480;BME280;3781;42.272;22.658;2022-08-07T10:37:26;94485.19;;;41.28;26.25
7480;BME280;3781;42.272;22.658;2022-08-07T10:40:03;94477.19;;;41.23;24.81
7480;BME280;3781;42.272;22.658;2022-08-07T10:42:35;94482.50;;;38.67;26.38
7480;BME280;3781;42.272;22.658;2022-08-07T10:45:16;94481.44;;;38.01;30.08
7480;BME280;3781;42.272;22.658;2022-08-07T10:47:50;94462.66;;;38.58;29.80
7480;BME280;3781;42.272;22.658;2022-08-07T10:50:21;94478.56;;;39.12;29.68
7480;BME280;3781;42.272;22.658;2022-08-07T10:52:57;94481.34;;;38.90;28.22
7480;BME280;3781;42.272;22.658;2022-08-07T10:55:29;94471.22;;;39.77;29.28
7480;BME280;3781;42.272;22.658;2022-08-07T10:58:04;94467.13;;;40.69;29.05
7480;BME280;3781;42.272;22.658;2022-08-07T11:00:45;94479.88;;;38.09;27.55
7480;BME280;3781;42.272;22.658;2022-08-07T11:03:22;94457.19;;;37.33;28.95
7480;BME280;3781;42.272;22.658;2022-08-07T11:05:54;94453.50;;;37.16;29.40
7480;BME280;3781;42.272;22.658;2022-08-07T11:08:30;94453.31;;;38.19;28.70
7480;BME280;3781;42.272;22.658;2022-08-07T11:11:02;94449.22;;;38.83;28.70
7480;BME280;3781;42.272;22.658;2022-08-07T11:13:34;94450.94;;;38.48;27.44
7480;BME280;3781;42.272;22.658;2022-08-07T11:16:06;94450.03;;;38.84;27.20
7480;BME280;3781;42.272;22.658;2022-08-07T11:18:41;94435.28;;;37.79;26.92
7480;BME280;3781;42.272;22.658;2022-08-07T11:21:22;94448.19;;;38.18;27.40
7480;BME280;3781;42.272;22.658;2022-08-07T11:23:57;94427.59;;;36.82;28.02
7480;BME280;3781;42.272;22.658;2022-08-07T11:26:30;94432.53;;;37.08;27.97
7480;BME280;3781;42.272;22.658;2022-08-07T11:29:04;94407.13;;;37.66;27.45
7480;BME280;3781;42.272;22.658;2022-08-07T11:31:37;94416.47;;;37.25;28.87
7480;BME280;3781;42.272;22.658;2022-08-07T11:34:16;94425.00;;;37.04;27.84
7480;BME280;3781;42.272;22.658;2022-08-07T11:36:55;94413.41;;;37.53;27.24
7480;BME280;3781;42.272;22.658;2022-08-07T11:39:43;94421.22;;;37.55;27.18
7480;BME280;3781;42.272;22.658;2022-08-07T11:42:18;94416.88;;;36.50;28.65
7480;BME280;3781;42.272;22.658;2022-08-07T11:44:52;94419.56;;;35.72;28.78
7480;BME280;3781;42.272;22.658;2022-08-07T11:47:47;94421.84;;;34.62;31.26
7480;BME280;3781;42.272;22.658;2022-08-07T11:50:26;94400.88;;;33.68;31.03
7480;BME280;3781;42.272;22.658;2022-08-07T11:53:12;94411.09;;;33.27;33.32
7480;BME280;3781;42.272;22.658;2022-08-07T11:56:00;94407.00;;;32.91;33.83
7480;BME280;3781;42.272;22.658;2022-08-07T11:58:42;94404.28;;;32.91;34.39
7480;BME280;3781;42.272;22.658;2022-08-07T12:01:24;94405.06;;;31.92;35.50
7480;BME280;3781;42.272;22.658;2022-08-07T12:04:11;94404.53;;;31.40;36.85
7480;BME280;3781;42.272;22.658;2022-08-07T12:06:46;94407.78;;;31.42;37.76
7480;BME280;3781;42.272;22.658;2022-08-07T12:09:17;94410.97;;;31.34;37.65
7480;BME280;3781;42.272;22.658;2022-08-07T12:11:46;94406.66;;;31.93;38.36
7480;BME280;3781;42.272;22.658;2022-08-07T12:14:19;94413.16;;;31.77;37.21
7480;BME280;3781;42.272;22.658;2022-08-07T12:16:50;94413.94;;;31.67;37.98
7480;BME280;3781;42.272;22.658;2022-08-07T12:19:30;94409.31;;;32.28;40.02
7480;BME280;3781;42.272;22.658;2022-08-07T12:22:05;94426.06;;;34.44;36.36
7480;BME280;3781;42.272;22.658;2022-08-07T12:24:38;94415.91;;;35.82;31.84
7480;BME280;3781;42.272;22.658;2022-08-07T12:27:29;94416.13;;;35.29;33.62
7480;BME280;3781;42.272;22.658;2022-08-07T12:30:02;94414.63;;;35.93;32.20
7480;BME280;3781;42.272;22.658;2022-08-07T12:32:35;94417.69;;;38.12;30.90
7480;BME280;3781;42.272;22.658;2022-08-07T12:35:06;94409.28;;;39.83;29.17
7480;BME280;3781;42.272;22.658;2022-08-07T12:37:36;94404.50;;;39.71;27.56
7480;BME280;3781;42.272;22.658;2022-08-07T12:40:06;94405.75;;;39.48;27.53
7480;BME280;3781;42.272;22.658;2022-08-07T12:42:35;94392.78;;;38.10;28.46
7480;BME280;3781;42.272;22.658;2022-08-07T12:45:06;94375.47;;;35.90;29.48
7480;BME280;3781;42.272;22.658;2022-08-07T12:47:41;94410.22;;;34.09;32.16
7480;BME280;3781;42.272;22.658;2022-08-07T12:50:17;94408.31;;;33.42;33.80
7480;BME280;3781;42.272;22.658;2022-08-07T12:52:50;94402.28;;;34.51;33.30
7480;BME280;3781;42.272;22.658;2022-08-07T12:55:23;94401.03;;;35.98;30.42
7480;BME280;3781;42.272;22.658;2022-08-07T12:57:53;94411.63;;;37.22;27.94
7480;BME280;3781;42.272;22.658;2022-08-07T13:00:28;94402.56;;;38.20;27.14
7480;BME280;3781;42.272;22.658;2022-08-07T13:03:15;94396.97;;;38.78;26.71
7480;BME280;3781;42.272;22.658;2022-08-07T13:05:54;94412.44;;;38.16;26.42
7480;BME280;3781;42.272;22.658;2022-08-07T13:08:39;94425.56;;;38.00;27.74
7480;BME280;3781;42.272;22.658;2022-08-07T13:11:22;94424.63;;;36.70;28.83
7480;BME280;3781;42.272;22.658;2022-08-07T13:13:57;94418.47;;;34.46;30.95
7480;BME280;3781;42.272;22.658;2022-08-07T13:16:38;94432.69;;;34.28;32.73
7480;BME280;3781;42.272;22.658;2022-08-07T13:19:14;94439.31;;;34.12;34.31
7480;BME280;3781;42.272;22.658;2022-08-07T13:21:51;94434.97;;;34.16;33.20
7480;BME280;3781;42.272;22.658;2022-08-07T13:24:23;94440.34;;;33.82;34.74
7480;BME280;3781;42.272;22.658;2022-08-07T13:26:56;94437.81;;;33.62;35.43
7480;BME280;3781;42.272;22.658;2022-08-07T13:29:32;94425.81;;;33.83;35.90
7480;BME280;3781;42.272;22.658;2022-08-07T13:32:03;94437.38;;;34.17;35.73
7480;BME280;3781;42.272;22.658;2022-08-07T13:34:40;94456.34;;;34.36;32.35
7480;BME280;3781;42.272;22.658;2022-08-07T13:37:15;94444.97;;;34.39;34.54